Portada
METAR-TAF:

METAR-TAF

Aeropuertos :

Bagdad, Iraq

Aeropuerto Internacional de Bagdad

latitud: 33-15-45N, longitud: 44-14-04E, altitud: 35 m

Observación

El informe se hizo hace 39 minutos, a las 20:00 UTC
Viento 5 kt del noroeste
Temperatura 34°C
Humedad 22%
Presión 999 hPa
Visibilidad 10 km o más
sin nubes por debajo de 1500 m y sin presencia de cumulonimbus.

METAR: ORBI 242000Z 31005KT CAVOK 34/09 Q0999 NOSIG

Hora: 23:39 (20:39 UTC)

Pronóstico

El informe se hizo hace 3 horas y 39 minutos, a las 17:00 UTC
Pronóstico válido del 24 a las 18 UTC al 25 a las 18 UTC
Viento 8 kt del noroeste
Visibilidad 10 km o más
sin nubes por debajo de 1500 m y sin presencia de cumulonimbus.

TAF: ORBI 241700Z 2418/2518 32008KT CAVOK

Observaciones y pronósticos meteorológicos de más de 4000 aeropuertos (mensajes METAR y TAF).

Los puntos amarillos y rojos representan las estaciones disponibles.

Ponga el ratón en el punto deseado para ver el nombre de la estación.

Haga clic para ver las observaciones y los pronósticos meteorológicos.

Para cambiar el mapa : haga clic en los botones verdes con una cruz de color negro para hacer un zoom, en el botón verde con un guión para alejar o en las flechas verdes para mapas adyacentes.


METAR-TAF: